sensor_id;sensor_type;location;lat;lon;timestamp;P1;durP1;ratioP1;P2;durP2;ratioP2
69334;SDS011;56477;52.742;15.242;2023-08-12T00:01:26;8.90;;;4.20;;
69334;SDS011;56477;52.742;15.242;2023-08-12T00:03:52;10.27;;;5.30;;
69334;SDS011;56477;52.742;15.242;2023-08-12T00:06:18;9.83;;;4.73;;
69334;SDS011;56477;52.742;15.242;2023-08-12T00:08:45;6.10;;;4.25;;
69334;SDS011;56477;52.742;15.242;2023-08-12T00:11:10;6.15;;;4.38;;
69334;SDS011;56477;52.742;15.242;2023-08-12T00:13:36;10.15;;;5.03;;
69334;SDS011;56477;52.742;15.242;2023-08-12T00:16:02;10.90;;;5.10;;
69334;SDS011;56477;52.742;15.242;2023-08-12T00:18:28;10.10;;;5.20;;
69334;SDS011;56477;52.742;15.242;2023-08-12T00:20:54;7.43;;;4.90;;
69334;SDS011;56477;52.742;15.242;2023-08-12T00:23:20;6.77;;;5.10;;
69334;SDS011;56477;52.742;15.242;2023-08-12T00:25:46;10.23;;;5.63;;
69334;SDS011;56477;52.742;15.242;2023-08-12T00:28:14;7.53;;;5.20;;
69334;SDS011;56477;52.742;15.242;2023-08-12T00:30:40;14.47;;;6.17;;
69334;SDS011;56477;52.742;15.242;2023-08-12T00:33:06;10.05;;;5.75;;
69334;SDS011;56477;52.742;15.242;2023-08-12T00:35:32;9.33;;;5.07;;
69334;SDS011;56477;52.742;15.242;2023-08-12T00:37:58;8.37;;;5.27;;
69334;SDS011;56477;52.742;15.242;2023-08-12T00:40:25;8.60;;;5.32;;
69334;SDS011;56477;52.742;15.242;2023-08-12T00:42:52;9.52;;;5.63;;
69334;SDS011;56477;52.742;15.242;2023-08-12T00:45:17;9.83;;;6.10;;
69334;SDS011;56477;52.742;15.242;2023-08-12T00:47:43;8.18;;;5.78;;
69334;SDS011;56477;52.742;15.242;2023-08-12T00:50:09;10.17;;;6.13;;
69334;SDS011;56477;52.742;15.242;2023-08-12T00:52:39;9.17;;;5.80;;
69334;SDS011;56477;52.742;15.242;2023-08-12T00:55:05;9.18;;;6.10;;
69334;SDS011;56477;52.742;15.242;2023-08-12T00:57:32;8.18;;;6.00;;
69334;SDS011;56477;52.742;15.242;2023-08-12T00:59:58;8.25;;;6.38;;
69334;SDS011;56477;52.742;15.242;2023-08-12T01:02:25;7.60;;;6.30;;
69334;SDS011;56477;52.742;15.242;2023-08-12T01:04:50;11.63;;;6.13;;
69334;SDS011;56477;52.742;15.242;2023-08-12T01:07:17;9.48;;;5.95;;
69334;SDS011;56477;52.742;15.242;2023-08-12T01:09:42;9.48;;;6.60;;
69334;SDS011;56477;52.742;15.242;2023-08-12T01:12:10;9.13;;;6.30;;
69334;SDS011;56477;52.742;15.242;2023-08-12T01:15:02;9.57;;;6.53;;
69334;SDS011;56477;52.742;15.242;2023-08-12T01:17:32;8.52;;;7.05;;
69334;SDS011;56477;52.742;15.242;2023-08-12T01:20:00;9.60;;;6.22;;
69334;SDS011;56477;52.742;15.242;2023-08-12T01:22:34;8.82;;;6.35;;
69334;SDS011;56477;52.742;15.242;2023-08-12T01:25:05;10.13;;;7.40;;
69334;SDS011;56477;52.742;15.242;2023-08-12T01:27:31;10.15;;;6.72;;
69334;SDS011;56477;52.742;15.242;2023-08-12T01:29:57;9.32;;;6.88;;
69334;SDS011;56477;52.742;15.242;2023-08-12T01:32:30;11.70;;;6.77;;
69334;SDS011;56477;52.742;15.242;2023-08-12T01:35:14;14.27;;;7.28;;
69334;SDS011;56477;52.742;15.242;2023-08-12T01:37:50;11.13;;;6.60;;
69334;SDS011;56477;52.742;15.242;2023-08-12T01:40:17;10.02;;;6.65;;
69334;SDS011;56477;52.742;15.242;2023-08-12T01:42:45;12.45;;;6.60;;
69334;SDS011;56477;52.742;15.242;2023-08-12T01:45:11;8.53;;;6.90;;
69334;SDS011;56477;52.742;15.242;2023-08-12T01:47:37;15.48;;;6.70;;
69334;SDS011;56477;52.742;15.242;2023-08-12T01:50:03;13.10;;;7.45;;
69334;SDS011;56477;52.742;15.242;2023-08-12T01:52:30;10.63;;;6.65;;
69334;SDS011;56477;52.742;15.242;2023-08-12T01:54:56;12.43;;;7.30;;
69334;SDS011;56477;52.742;15.242;2023-08-12T01:57:22;10.48;;;7.15;;
69334;SDS011;56477;52.742;15.242;2023-08-12T01:59:47;9.85;;;6.75;;
69334;SDS011;56477;52.742;15.242;2023-08-12T02:02:13;10.20;;;6.82;;
69334;SDS011;56477;52.742;15.242;2023-08-12T02:04:39;8.57;;;6.50;;
69334;SDS011;56477;52.742;15.242;2023-08-12T02:07:08;13.20;;;7.47;;
69334;SDS011;56477;52.742;15.242;2023-08-12T02:09:34;11.35;;;7.30;;
69334;SDS011;56477;52.742;15.242;2023-08-12T02:12:00;15.13;;;7.50;;
69334;SDS011;56477;52.742;15.242;2023-08-12T02:14:25;11.03;;;7.47;;
69334;SDS011;56477;52.742;15.242;2023-08-12T02:16:52;11.85;;;7.70;;
69334;SDS011;56477;52.742;15.242;2023-08-12T02:19:17;10.70;;;6.80;;
69334;SDS011;56477;52.742;15.242;2023-08-12T02:21:43;12.43;;;7.37;;
69334;SDS011;56477;52.742;15.242;2023-08-12T02:24:09;10.32;;;7.15;;
69334;SDS011;56477;52.742;15.242;2023-08-12T02:26:37;12.65;;;7.50;;
69334;SDS011;56477;52.742;15.242;2023-08-12T02:29:03;9.03;;;7.13;;
69334;SDS011;56477;52.742;15.242;2023-08-12T02:31:29;9.95;;;7.00;;
69334;SDS011;56477;52.742;15.242;2023-08-12T02:33:55;13.15;;;7.82;;
69334;SDS011;56477;52.742;15.242;2023-08-12T02:36:21;12.07;;;7.35;;
69334;SDS011;56477;52.742;15.242;2023-08-12T02:38:47;11.43;;;7.20;;
69334;SDS011;56477;52.742;15.242;2023-08-12T02:41:13;10.55;;;7.57;;
69334;SDS011;56477;52.742;15.242;2023-08-12T02:43:39;12.13;;;7.55;;
69334;SDS011;56477;52.742;15.242;2023-08-12T02:46:05;11.63;;;7.80;;
69334;SDS011;56477;52.742;15.242;2023-08-12T02:48:31;10.83;;;6.87;;
69334;SDS011;56477;52.742;15.242;2023-08-12T02:50:57;13.20;;;7.80;;
69334;SDS011;56477;52.742;15.242;2023-08-12T02:53:22;12.00;;;6.93;;
69334;SDS011;56477;52.742;15.242;2023-08-12T02:55:48;11.87;;;7.40;;
69334;SDS011;56477;52.742;15.242;2023-08-12T02:58:14;10.85;;;6.68;;
69334;SDS011;56477;52.742;15.242;2023-08-12T03:00:41;11.80;;;6.78;;
69334;SDS011;56477;52.742;15.242;2023-08-12T03:03:09;11.27;;;7.40;;
69334;SDS011;56477;52.742;15.242;2023-08-12T03:05:35;11.73;;;7.55;;
69334;SDS011;56477;52.742;15.242;2023-08-12T03:08:01;11.82;;;7.82;;
69334;SDS011;56477;52.742;15.242;2023-08-12T03:10:29;12.13;;;7.50;;
69334;SDS011;56477;52.742;15.242;2023-08-12T03:12:55;11.02;;;7.20;;
69334;SDS011;56477;52.742;15.242;2023-08-12T03:15:21;12.40;;;7.00;;
69334;SDS011;56477;52.742;15.242;2023-08-12T03:17:47;12.23;;;7.15;;
69334;SDS011;56477;52.742;15.242;2023-08-12T03:20:14;10.68;;;7.57;;
69334;SDS011;56477;52.742;15.242;2023-08-12T03:22:39;9.93;;;7.38;;
69334;SDS011;56477;52.742;15.242;2023-08-12T03:25:05;9.87;;;8.30;;
69334;SDS011;56477;52.742;15.242;2023-08-12T03:27:31;12.53;;;7.83;;
69334;SDS011;56477;52.742;15.242;2023-08-12T03:29:58;14.10;;;7.95;;
69334;SDS011;56477;52.742;15.242;2023-08-12T03:32:24;10.98;;;8.05;;
69334;SDS011;56477;52.742;15.242;2023-08-12T03:34:51;12.85;;;7.80;;
69334;SDS011;56477;52.742;15.242;2023-08-12T03:37:18;12.93;;;7.90;;
69334;SDS011;56477;52.742;15.242;2023-08-12T03:39:44;11.18;;;7.18;;
69334;SDS011;56477;52.742;15.242;2023-08-12T03:42:10;10.27;;;7.43;;
69334;SDS011;56477;52.742;15.242;2023-08-12T03:44:36;9.95;;;7.45;;
69334;SDS011;56477;52.742;15.242;2023-08-12T03:47:02;10.90;;;7.70;;
69334;SDS011;56477;52.742;15.242;2023-08-12T03:49:28;11.73;;;7.65;;
69334;SDS011;56477;52.742;15.242;2023-08-12T03:51:54;12.00;;;7.77;;
69334;SDS011;56477;52.742;15.242;2023-08-12T03:54:20;11.68;;;7.55;;
69334;SDS011;56477;52.742;15.242;2023-08-12T03:56:45;10.38;;;7.22;;
69334;SDS011;56477;52.742;15.242;2023-08-12T03:59:12;12.30;;;7.47;;
69334;SDS011;56477;52.742;15.242;2023-08-12T04:01:37;15.83;;;8.17;;
69334;SDS011;56477;52.742;15.242;2023-08-12T04:04:03;12.63;;;7.75;;
69334;SDS011;56477;52.742;15.242;2023-08-12T04:06:29;9.73;;;7.82;;
69334;SDS011;56477;52.742;15.242;2023-08-12T04:08:55;13.03;;;7.57;;
69334;SDS011;56477;52.742;15.242;2023-08-12T04:11:21;12.13;;;7.68;;
69334;SDS011;56477;52.742;15.242;2023-08-12T04:13:47;11.43;;;7.47;;
69334;SDS011;56477;52.742;15.242;2023-08-12T04:16:13;14.47;;;8.47;;
69334;SDS011;56477;52.742;15.242;2023-08-12T04:18:39;15.82;;;8.52;;
69334;SDS011;56477;52.742;15.242;2023-08-12T04:21:05;12.40;;;7.88;;
69334;SDS011;56477;52.742;15.242;2023-08-12T04:23:31;13.33;;;8.27;;
69334;SDS011;56477;52.742;15.242;2023-08-12T04:25:56;10.93;;;7.45;;
69334;SDS011;56477;52.742;15.242;2023-08-12T04:28:22;10.85;;;8.32;;
69334;SDS011;56477;52.742;15.242;2023-08-12T04:30:48;11.83;;;7.77;;
69334;SDS011;56477;52.742;15.242;2023-08-12T04:33:18;10.68;;;8.02;;
69334;SDS011;56477;52.742;15.242;2023-08-12T04:35:45;10.68;;;7.60;;
69334;SDS011;56477;52.742;15.242;2023-08-12T04:38:11;14.60;;;8.32;;
69334;SDS011;56477;52.742;15.242;2023-08-12T04:40:40;12.33;;;8.00;;
69334;SDS011;56477;52.742;15.242;2023-08-12T04:43:07;9.73;;;7.32;;
69334;SDS011;56477;52.742;15.242;2023-08-12T04:45:33;12.68;;;7.90;;
69334;SDS011;56477;52.742;15.242;2023-08-12T04:47:59;13.63;;;7.90;;
69334;SDS011;56477;52.742;15.242;2023-08-12T04:50:29;11.65;;;8.50;;
69334;SDS011;56477;52.742;15.242;2023-08-12T04:52:56;11.30;;;8.53;;
69334;SDS011;56477;52.742;15.242;2023-08-12T04:55:21;11.93;;;8.30;;
69334;SDS011;56477;52.742;15.242;2023-08-12T04:57:47;10.57;;;7.93;;
69334;SDS011;56477;52.742;15.242;2023-08-12T05:00:13;11.43;;;8.30;;
69334;SDS011;56477;52.742;15.242;2023-08-12T05:02:40;12.38;;;8.20;;
69334;SDS011;56477;52.742;15.242;2023-08-12T05:05:06;11.15;;;8.18;;
69334;SDS011;56477;52.742;15.242;2023-08-12T05:07:32;10.10;;;8.07;;
69334;SDS011;56477;52.742;15.242;2023-08-12T05:09:59;12.18;;;8.45;;
69334;SDS011;56477;52.742;15.242;2023-08-12T05:12:25;12.25;;;8.43;;
69334;SDS011;56477;52.742;15.242;2023-08-12T05:14:51;13.55;;;8.85;;
69334;SDS011;56477;52.742;15.242;2023-08-12T05:17:17;15.00;;;8.80;;
69334;SDS011;56477;52.742;15.242;2023-08-12T05:19:43;11.38;;;8.40;;
69334;SDS011;56477;52.742;15.242;2023-08-12T05:22:09;9.93;;;7.95;;
69334;SDS011;56477;52.742;15.242;2023-08-12T05:24:35;12.63;;;8.32;;
69334;SDS011;56477;52.742;15.242;2023-08-12T05:27:01;11.90;;;8.90;;
69334;SDS011;56477;52.742;15.242;2023-08-12T05:29:27;14.10;;;8.97;;
69334;SDS011;56477;52.742;15.242;2023-08-12T05:31:53;10.25;;;8.73;;
69334;SDS011;56477;52.742;15.242;2023-08-12T05:34:19;13.80;;;8.30;;
69334;SDS011;56477;52.742;15.242;2023-08-12T05:36:45;15.77;;;8.50;;
69334;SDS011;56477;52.742;15.242;2023-08-12T05:39:11;13.95;;;9.00;;
69334;SDS011;56477;52.742;15.242;2023-08-12T05:41:37;15.80;;;8.52;;
69334;SDS011;56477;52.742;15.242;2023-08-12T05:44:03;12.13;;;8.52;;
69334;SDS011;56477;52.742;15.242;2023-08-12T05:46:30;12.80;;;8.67;;
69334;SDS011;56477;52.742;15.242;2023-08-12T05:48:56;13.70;;;8.65;;
69334;SDS011;56477;52.742;15.242;2023-08-12T05:51:22;14.20;;;8.70;;
69334;SDS011;56477;52.742;15.242;2023-08-12T05:53:48;13.37;;;8.70;;
69334;SDS011;56477;52.742;15.242;2023-08-12T05:56:14;14.90;;;9.40;;
69334;SDS011;56477;52.742;15.242;2023-08-12T05:58:40;13.02;;;8.38;;
69334;SDS011;56477;52.742;15.242;2023-08-12T06:01:06;12.43;;;8.17;;
69334;SDS011;56477;52.742;15.242;2023-08-12T06:03:31;16.60;;;8.55;;
69334;SDS011;56477;52.742;15.242;2023-08-12T06:05:58;11.82;;;8.00;;
69334;SDS011;56477;52.742;15.242;2023-08-12T06:08:23;12.53;;;8.83;;
69334;SDS011;56477;52.742;15.242;2023-08-12T06:10:49;11.00;;;7.97;;
69334;SDS011;56477;52.742;15.242;2023-08-12T06:13:15;16.05;;;8.70;;
69334;SDS011;56477;52.742;15.242;2023-08-12T06:15:41;12.43;;;8.30;;
69334;SDS011;56477;52.742;15.242;2023-08-12T06:18:07;13.52;;;8.25;;
69334;SDS011;56477;52.742;15.242;2023-08-12T06:20:33;11.07;;;7.97;;
69334;SDS011;56477;52.742;15.242;2023-08-12T06:22:59;10.67;;;8.17;;
69334;SDS011;56477;52.742;15.242;2023-08-12T06:25:25;12.40;;;8.65;;
69334;SDS011;56477;52.742;15.242;2023-08-12T06:27:50;13.38;;;8.57;;
69334;SDS011;56477;52.742;15.242;2023-08-12T06:30:17;12.48;;;8.10;;
69334;SDS011;56477;52.742;15.242;2023-08-12T06:32:42;13.10;;;8.27;;
69334;SDS011;56477;52.742;15.242;2023-08-12T06:35:08;10.15;;;7.72;;
69334;SDS011;56477;52.742;15.242;2023-08-12T06:37:35;13.02;;;7.72;;
69334;SDS011;56477;52.742;15.242;2023-08-12T06:40:01;10.13;;;8.05;;
69334;SDS011;56477;52.742;15.242;2023-08-12T06:42:27;9.17;;;7.00;;
69334;SDS011;56477;52.742;15.242;2023-08-12T06:44:56;12.13;;;8.10;;
69334;SDS011;56477;52.742;15.242;2023-08-12T06:47:23;11.18;;;7.63;;
69334;SDS011;56477;52.742;15.242;2023-08-12T06:49:49;12.75;;;7.82;;
69334;SDS011;56477;52.742;15.242;2023-08-12T06:52:15;10.30;;;7.33;;
69334;SDS011;56477;52.742;15.242;2023-08-12T06:54:42;10.35;;;7.47;;
69334;SDS011;56477;52.742;15.242;2023-08-12T06:57:07;11.93;;;6.72;;
69334;SDS011;56477;52.742;15.242;2023-08-12T06:59:33;8.63;;;6.90;;
69334;SDS011;56477;52.742;15.242;2023-08-12T07:01:59;8.50;;;6.63;;
69334;SDS011;56477;52.742;15.242;2023-08-12T07:04:25;11.13;;;6.25;;
69334;SDS011;56477;52.742;15.242;2023-08-12T07:06:51;8.87;;;6.27;;
69334;SDS011;56477;52.742;15.242;2023-08-12T07:09:17;9.00;;;6.40;;
69334;SDS011;56477;52.742;15.242;2023-08-12T07:11:43;10.18;;;6.53;;
69334;SDS011;56477;52.742;15.242;2023-08-12T07:14:09;6.45;;;5.47;;
69334;SDS011;56477;52.742;15.242;2023-08-12T07:16:35;7.28;;;5.32;;
69334;SDS011;56477;52.742;15.242;2023-08-12T07:19:01;6.57;;;5.60;;
69334;SDS011;56477;52.742;15.242;2023-08-12T07:21:27;9.55;;;5.25;;
69334;SDS011;56477;52.742;15.242;2023-08-12T07:23:53;8.27;;;5.38;;
69334;SDS011;56477;52.742;15.242;2023-08-12T07:26:19;6.97;;;5.40;;
69334;SDS011;56477;52.742;15.242;2023-08-12T07:28:45;8.75;;;5.65;;
69334;SDS011;56477;52.742;15.242;2023-08-12T07:31:10;6.32;;;5.35;;
69334;SDS011;56477;52.742;15.242;2023-08-12T07:33:37;11.30;;;5.60;;
69334;SDS011;56477;52.742;15.242;2023-08-12T07:36:02;8.53;;;5.40;;
69334;SDS011;56477;52.742;15.242;2023-08-12T07:38:29;6.20;;;4.80;;
69334;SDS011;56477;52.742;15.242;2023-08-12T07:40:54;7.60;;;5.40;;
69334;SDS011;56477;52.742;15.242;2023-08-12T07:43:20;7.93;;;5.32;;
69334;SDS011;56477;52.742;15.242;2023-08-12T07:45:50;7.57;;;6.03;;
69334;SDS011;56477;52.742;15.242;2023-08-12T07:48:18;7.60;;;5.50;;
69334;SDS011;56477;52.742;15.242;2023-08-12T07:50:44;8.00;;;5.10;;
69334;SDS011;56477;52.742;15.242;2023-08-12T07:53:10;6.17;;;4.90;;
69334;SDS011;56477;52.742;15.242;2023-08-12T07:55:36;7.17;;;5.00;;
69334;SDS011;56477;52.742;15.242;2023-08-12T07:58:02;7.18;;;5.43;;
69334;SDS011;56477;52.742;15.242;2023-08-12T08:00:29;8.48;;;5.25;;
69334;SDS011;56477;52.742;15.242;2023-08-12T08:02:55;11.07;;;5.03;;
69334;SDS011;56477;52.742;15.242;2023-08-12T08:05:21;7.60;;;5.17;;
69334;SDS011;56477;52.742;15.242;2023-08-12T08:07:48;7.43;;;5.30;;
69334;SDS011;56477;52.742;15.242;2023-08-12T08:10:13;8.60;;;4.70;;
69334;SDS011;56477;52.742;15.242;2023-08-12T08:12:40;12.45;;;5.53;;
69334;SDS011;56477;52.742;15.242;2023-08-12T08:15:05;8.05;;;4.80;;
69334;SDS011;56477;52.742;15.242;2023-08-12T08:17:32;9.63;;;5.80;;
69334;SDS011;56477;52.742;15.242;2023-08-12T08:19:58;6.63;;;5.37;;
69334;SDS011;56477;52.742;15.242;2023-08-12T08:22:24;6.00;;;5.40;;
69334;SDS011;56477;52.742;15.242;2023-08-12T08:24:50;7.68;;;4.78;;
69334;SDS011;56477;52.742;15.242;2023-08-12T08:27:16;8.10;;;5.50;;
69334;SDS011;56477;52.742;15.242;2023-08-12T08:29:41;9.80;;;4.90;;
69334;SDS011;56477;52.742;15.242;2023-08-12T08:32:07;7.10;;;4.32;;
69334;SDS011;56477;52.742;15.242;2023-08-12T08:34:34;6.35;;;4.70;;
69334;SDS011;56477;52.742;15.242;2023-08-12T08:37:00;6.90;;;4.82;;
69334;SDS011;56477;52.742;15.242;2023-08-12T08:39:26;6.60;;;5.30;;
69334;SDS011;56477;52.742;15.242;2023-08-12T08:41:52;7.90;;;5.45;;
69334;SDS011;56477;52.742;15.242;2023-08-12T08:44:20;6.72;;;5.20;;
69334;SDS011;56477;52.742;15.242;2023-08-12T08:46:49;6.60;;;5.72;;
69334;SDS011;56477;52.742;15.242;2023-08-12T08:49:17;7.70;;;5.07;;
69334;SDS011;56477;52.742;15.242;2023-08-12T08:51:44;8.85;;;5.28;;
69334;SDS011;56477;52.742;15.242;2023-08-12T08:54:12;7.60;;;5.55;;
69334;SDS011;56477;52.742;15.242;2023-08-12T08:56:39;7.28;;;4.88;;
69334;SDS011;56477;52.742;15.242;2023-08-12T08:59:05;6.68;;;5.03;;
69334;SDS011;56477;52.742;15.242;2023-08-12T09:01:31;5.33;;;4.60;;
69334;SDS011;56477;52.742;15.242;2023-08-12T09:03:57;5.67;;;4.13;;
69334;SDS011;56477;52.742;15.242;2023-08-12T09:06:24;7.88;;;4.60;;
69334;SDS011;56477;52.742;15.242;2023-08-12T09:08:51;7.60;;;4.75;;
69334;SDS011;56477;52.742;15.242;2023-08-12T09:11:18;7.47;;;5.28;;
69334;SDS011;56477;52.742;15.242;2023-08-12T09:13:45;6.35;;;4.20;;
69334;SDS011;56477;52.742;15.242;2023-08-12T09:16:11;5.75;;;4.55;;
69334;SDS011;56477;52.742;15.242;2023-08-12T09:18:37;8.00;;;5.10;;
69334;SDS011;56477;52.742;15.242;2023-08-12T09:21:04;9.32;;;4.78;;
69334;SDS011;56477;52.742;15.242;2023-08-12T09:23:40;8.10;;;5.10;;
69334;SDS011;56477;52.742;15.242;2023-08-12T09:26:13;16.83;;;4.88;;
69334;SDS011;56477;52.742;15.242;2023-08-12T09:28:41;8.67;;;4.10;;
69334;SDS011;56477;52.742;15.242;2023-08-12T09:31:08;4.87;;;4.07;;
69334;SDS011;56477;52.742;15.242;2023-08-12T09:33:46;6.35;;;4.32;;
69334;SDS011;56477;52.742;15.242;2023-08-12T09:36:12;6.28;;;4.30;;
69334;SDS011;56477;52.742;15.242;2023-08-12T09:38:38;6.47;;;4.25;;
69334;SDS011;56477;52.742;15.242;2023-08-12T09:41:04;7.05;;;4.13;;
69334;SDS011;56477;52.742;15.242;2023-08-12T09:43:30;5.63;;;4.23;;
69334;SDS011;56477;52.742;15.242;2023-08-12T09:45:57;7.53;;;4.10;;
69334;SDS011;56477;52.742;15.242;2023-08-12T09:48:25;6.85;;;4.35;;
69334;SDS011;56477;52.742;15.242;2023-08-12T09:50:54;6.90;;;3.88;;
69334;SDS011;56477;52.742;15.242;2023-08-12T09:53:21;5.88;;;4.30;;
69334;SDS011;56477;52.742;15.242;2023-08-12T09:55:48;7.10;;;4.30;;
69334;SDS011;56477;52.742;15.242;2023-08-12T09:58:18;8.93;;;4.20;;
69334;SDS011;56477;52.742;15.242;2023-08-12T10:00:48;4.43;;;3.42;;
69334;SDS011;56477;52.742;15.242;2023-08-12T10:03:14;5.82;;;3.42;;
69334;SDS011;56477;52.742;15.242;2023-08-12T10:05:43;5.97;;;4.07;;
69334;SDS011;56477;52.742;15.242;2023-08-12T10:08:09;5.50;;;3.47;;
69334;SDS011;56477;52.742;15.242;2023-08-12T10:10:38;5.72;;;4.22;;
69334;SDS011;56477;52.742;15.242;2023-08-12T10:13:04;5.00;;;3.70;;
69334;SDS011;56477;52.742;15.242;2023-08-12T10:15:33;6.25;;;3.47;;
69334;SDS011;56477;52.742;15.242;2023-08-12T10:17:59;6.45;;;4.15;;
69334;SDS011;56477;52.742;15.242;2023-08-12T10:20:26;5.97;;;3.72;;
69334;SDS011;56477;52.742;15.242;2023-08-12T10:22:55;5.70;;;3.92;;
69334;SDS011;56477;52.742;15.242;2023-08-12T10:25:21;8.40;;;4.78;;
69334;SDS011;56477;52.742;15.242;2023-08-12T10:27:47;5.33;;;3.70;;
69334;SDS011;56477;52.742;15.242;2023-08-12T10:30:14;5.53;;;4.00;;
69334;SDS011;56477;52.742;15.242;2023-08-12T10:32:40;6.88;;;3.97;;
69334;SDS011;56477;52.742;15.242;2023-08-12T10:35:06;5.60;;;4.10;;
69334;SDS011;56477;52.742;15.242;2023-08-12T10:37:33;5.78;;;4.57;;
69334;SDS011;56477;52.742;15.242;2023-08-12T10:40:09;5.65;;;3.95;;
69334;SDS011;56477;52.742;15.242;2023-08-12T10:42:46;8.33;;;4.53;;
69334;SDS011;56477;52.742;15.242;2023-08-12T10:45:14;6.88;;;3.88;;
69334;SDS011;56477;52.742;15.242;2023-08-12T10:50:25;5.22;;;4.00;;
69334;SDS011;56477;52.742;15.242;2023-08-12T10:52:52;6.20;;;4.53;;
69334;SDS011;56477;52.742;15.242;2023-08-12T10:55:19;7.23;;;4.13;;
69334;SDS011;56477;52.742;15.242;2023-08-12T10:57:50;5.37;;;4.07;;
69334;SDS011;56477;52.742;15.242;2023-08-12T11:00:18;7.18;;;4.80;;
69334;SDS011;56477;52.742;15.242;2023-08-12T11:02:49;7.95;;;4.68;;
69334;SDS011;56477;52.742;15.242;2023-08-12T11:05:17;8.77;;;5.00;;
69334;SDS011;56477;52.742;15.242;2023-08-12T11:07:59;8.80;;;4.50;;
69334;SDS011;56477;52.742;15.242;2023-08-12T11:10:29;5.80;;;4.20;;
69334;SDS011;56477;52.742;15.242;2023-08-12T11:12:57;10.20;;;4.33;;
69334;SDS011;56477;52.742;15.242;2023-08-12T11:18:13;7.55;;;4.70;;
69334;SDS011;56477;52.742;15.242;2023-08-12T11:20:42;5.35;;;4.70;;
69334;SDS011;56477;52.742;15.242;2023-08-12T11:23:08;6.35;;;4.30;;
69334;SDS011;56477;52.742;15.242;2023-08-12T11:25:36;7.95;;;4.30;;
69334;SDS011;56477;52.742;15.242;2023-08-12T11:28:06;7.97;;;4.00;;
69334;SDS011;56477;52.742;15.242;2023-08-12T11:30:33;7.15;;;4.03;;
69334;SDS011;56477;52.742;15.242;2023-08-12T11:32:59;9.15;;;4.47;;
69334;SDS011;56477;52.742;15.242;2023-08-12T11:35:27;7.63;;;4.38;;
69334;SDS011;56477;52.742;15.242;2023-08-12T11:37:54;7.18;;;4.40;;
69334;SDS011;56477;52.742;15.242;2023-08-12T11:40:22;6.53;;;4.53;;
69334;SDS011;56477;52.742;15.242;2023-08-12T11:42:49;6.80;;;5.03;;
69334;SDS011;56477;52.742;15.242;2023-08-12T11:45:19;5.88;;;3.60;;
69334;SDS011;56477;52.742;15.242;2023-08-12T11:47:46;7.45;;;4.25;;
69334;SDS011;56477;52.742;15.242;2023-08-12T11:50:18;7.90;;;3.33;;
69334;SDS011;56477;52.742;15.242;2023-08-12T11:52:45;7.70;;;4.07;;
69334;SDS011;56477;52.742;15.242;2023-08-12T11:55:12;7.53;;;4.30;;
69334;SDS011;56477;52.742;15.242;2023-08-12T11:57:39;7.40;;;3.90;;
69334;SDS011;56477;52.742;15.242;2023-08-12T12:00:06;5.20;;;3.57;;
69334;SDS011;56477;52.742;15.242;2023-08-12T12:02:39;7.28;;;3.15;;
69334;SDS011;56477;52.742;15.242;2023-08-12T12:05:10;4.22;;;3.30;;
69334;SDS011;56477;52.742;15.242;2023-08-12T12:07:36;4.93;;;4.40;;
69334;SDS011;56477;52.742;15.242;2023-08-12T12:10:03;4.82;;;2.80;;
69334;SDS011;56477;52.742;15.242;2023-08-12T12:12:33;4.47;;;3.45;;
69334;SDS011;56477;52.742;15.242;2023-08-12T12:15:00;4.47;;;3.25;;
69334;SDS011;56477;52.742;15.242;2023-08-12T12:17:27;4.23;;;3.03;;
69334;SDS011;56477;52.742;15.242;2023-08-12T12:19:57;5.63;;;3.43;;
69334;SDS011;56477;52.742;15.242;2023-08-12T12:22:30;6.85;;;3.58;;
69334;SDS011;56477;52.742;15.242;2023-08-12T12:25:05;5.55;;;3.20;;
69334;SDS011;56477;52.742;15.242;2023-08-12T12:27:32;5.88;;;3.65;;
69334;SDS011;56477;52.742;15.242;2023-08-12T12:30:01;3.78;;;3.03;;
69334;SDS011;56477;52.742;15.242;2023-08-12T12:32:27;4.97;;;3.05;;
69334;SDS011;56477;52.742;15.242;2023-08-12T12:34:54;5.88;;;3.08;;
69334;SDS011;56477;52.742;15.242;2023-08-12T12:37:20;6.53;;;3.50;;
69334;SDS011;56477;52.742;15.242;2023-08-12T12:39:46;4.80;;;2.77;;
69334;SDS011;56477;52.742;15.242;2023-08-12T12:42:12;5.13;;;3.58;;
69334;SDS011;56477;52.742;15.242;2023-08-12T12:44:39;4.07;;;3.10;;
69334;SDS011;56477;52.742;15.242;2023-08-12T12:47:04;5.13;;;3.50;;
69334;SDS011;56477;52.742;15.242;2023-08-12T12:49:31;5.20;;;3.37;;
69334;SDS011;56477;52.742;15.242;2023-08-12T12:51:56;4.63;;;3.17;;
69334;SDS011;56477;52.742;15.242;2023-08-12T12:54:22;4.88;;;3.30;;
69334;SDS011;56477;52.742;15.242;2023-08-12T12:56:48;5.33;;;3.53;;
69334;SDS011;56477;52.742;15.242;2023-08-12T12:59:14;5.88;;;4.05;;
69334;SDS011;56477;52.742;15.242;2023-08-12T13:01:40;4.05;;;3.40;;
69334;SDS011;56477;52.742;15.242;2023-08-12T13:04:07;6.15;;;3.50;;
69334;SDS011;56477;52.742;15.242;2023-08-12T13:06:33;7.43;;;3.37;;
69334;SDS011;56477;52.742;15.242;2023-08-12T13:09:00;5.60;;;3.37;;
69334;SDS011;56477;52.742;15.242;2023-08-12T13:11:26;13.43;;;8.35;;
69334;SDS011;56477;52.742;15.242;2023-08-12T13:13:52;9.20;;;5.13;;
69334;SDS011;56477;52.742;15.242;2023-08-12T13:16:19;6.30;;;3.72;;
69334;SDS011;56477;52.742;15.242;2023-08-12T13:18:45;7.13;;;3.60;;
69334;SDS011;56477;52.742;15.242;2023-08-12T13:21:11;10.30;;;5.70;;
69334;SDS011;56477;52.742;15.242;2023-08-12T13:23:37;7.93;;;4.03;;
69334;SDS011;56477;52.742;15.242;2023-08-12T13:26:03;5.85;;;3.50;;
69334;SDS011;56477;52.742;15.242;2023-08-12T13:28:29;4.10;;;3.13;;
69334;SDS011;56477;52.742;15.242;2023-08-12T13:30:55;4.50;;;3.27;;
69334;SDS011;56477;52.742;15.242;2023-08-12T13:33:22;5.82;;;3.58;;
69334;SDS011;56477;52.742;15.242;2023-08-12T13:35:48;7.50;;;3.50;;
69334;SDS011;56477;52.742;15.242;2023-08-12T13:38:14;4.68;;;3.88;;
69334;SDS011;56477;52.742;15.242;2023-08-12T13:40:40;8.65;;;4.57;;
69334;SDS011;56477;52.742;15.242;2023-08-12T13:43:06;10.98;;;7.97;;
69334;SDS011;56477;52.742;15.242;2023-08-12T13:45:32;8.83;;;5.77;;
69334;SDS011;56477;52.742;15.242;2023-08-12T13:47:58;4.70;;;3.53;;
69334;SDS011;56477;52.742;15.242;2023-08-12T13:50:23;9.17;;;6.97;;
69334;SDS011;56477;52.742;15.242;2023-08-12T13:52:50;8.90;;;4.17;;
69334;SDS011;56477;52.742;15.242;2023-08-12T13:55:15;7.68;;;4.75;;
69334;SDS011;56477;52.742;15.242;2023-08-12T13:57:42;5.47;;;3.85;;
69334;SDS011;56477;52.742;15.242;2023-08-12T14:00:08;7.38;;;4.40;;
69334;SDS011;56477;52.742;15.242;2023-08-12T14:02:39;8.27;;;5.80;;
69334;SDS011;56477;52.742;15.242;2023-08-12T14:05:05;6.70;;;4.03;;
69334;SDS011;56477;52.742;15.242;2023-08-12T14:07:32;10.27;;;7.10;;
69334;SDS011;56477;52.742;15.242;2023-08-12T14:09:58;10.50;;;6.15;;
69334;SDS011;56477;52.742;15.242;2023-08-12T14:12:25;7.55;;;3.95;;
69334;SDS011;56477;52.742;15.242;2023-08-12T14:14:51;6.97;;;5.30;;
69334;SDS011;56477;52.742;15.242;2023-08-12T14:17:17;5.00;;;3.73;;
69334;SDS011;56477;52.742;15.242;2023-08-12T14:19:44;6.72;;;4.57;;
69334;SDS011;56477;52.742;15.242;2023-08-12T14:22:13;6.63;;;4.55;;
69334;SDS011;56477;52.742;15.242;2023-08-12T14:24:39;6.22;;;4.20;;
69334;SDS011;56477;52.742;15.242;2023-08-12T14:27:05;6.57;;;3.90;;
69334;SDS011;56477;52.742;15.242;2023-08-12T14:29:31;6.43;;;4.00;;
69334;SDS011;56477;52.742;15.242;2023-08-12T14:31:57;7.32;;;4.70;;